TAM3911 SBRJ-SBSP
Flight info
| Callsign | TAM3911 |
|---|---|
| Flight time | 0h 43m |
| Altitude | 30000 |
| Route | NAXOP UZ45 IBDAL |
| Aircraft | A319/M-SDE3FGHIRWY/LB1 |
Departure
| Time | 2026-05-01 14:03 |
|---|---|
| Airport | Santos Dumont Airport (SBRJ) |
Arrival
| Time | 2026-05-01 14:46 |
|---|---|
| Airport | Congonhas–Deputado Freitas Nobre Airport (SBSP) |
| Time | Latitude | Longitude | Altitude | Speed | Heading |
|---|---|---|---|---|---|
| 2026-05-01 13:52 | -22.91319 | -43.16578 | 22 ft | 0 kts | 268° |
| 2026-05-01 13:57 | -22.91318 | -43.16565 | 22 ft | 4 kts | 267° |
| 2026-05-01 13:57 | -22.91317 | -43.16545 | 22 ft | 4 kts | 269° |
| 2026-05-01 13:57 | -22.91322 | -43.16510 | 26 ft | 4 kts | 320° |
| 2026-05-01 13:57 | -22.91341 | -43.16505 | 24 ft | 4 kts | 356° |
| 2026-05-01 13:58 | -22.91350 | -43.16504 | 22 ft | 0 kts | 356° |
| 2026-05-01 13:59 | -22.91346 | -43.16504 | 22 ft | 3 kts | 356° |
| 2026-05-01 13:59 | -22.91308 | -43.16507 | 22 ft | 8 kts | 356° |
| 2026-05-01 13:59 | -22.91230 | -43.16512 | 22 ft | 14 kts | 356° |
| 2026-05-01 14:00 | -22.91124 | -43.16521 | 22 ft | 16 kts | 351° |
| 2026-05-01 14:00 | -22.91013 | -43.16537 | 22 ft | 16 kts | 355° |
| 2026-05-01 14:00 | -22.90896 | -43.16547 | 22 ft | 17 kts | 355° |
| 2026-05-01 14:00 | -22.90774 | -43.16544 | 25 ft | 18 kts | 2° |
| 2026-05-01 14:01 | -22.90649 | -43.16548 | 22 ft | 18 kts | 357° |
| 2026-05-01 14:01 | -22.90524 | -43.16554 | 22 ft | 15 kts | 10° |
| 2026-05-01 14:01 | -22.90497 | -43.16487 | 23 ft | 9 kts | 88° |
| 2026-05-01 14:01 | -22.90493 | -43.16418 | 24 ft | 9 kts | 85° |
| 2026-05-01 14:02 | -22.90473 | -43.16352 | 27 ft | 10 kts | 63° |
| 2026-05-01 14:02 | -22.90478 | -43.16316 | 26 ft | 0 kts | 178° |
| 2026-05-01 14:02 | -22.90480 | -43.16316 | 24 ft | 3 kts | 178° |
| 2026-05-01 14:02 | -22.90819 | -43.16298 | 24 ft | 97 kts | 176° |
| 2026-05-01 14:03 | -22.91738 | -43.16222 | 267 ft | 149 kts | 168° |
| 2026-05-01 14:03 | -22.92674 | -43.15616 | 751 ft | 171 kts | 140° |
| 2026-05-01 14:03 | -22.93674 | -43.14756 | 1105 ft | 198 kts | 142° |
| 2026-05-01 14:03 | -22.94844 | -43.13776 | 1603 ft | 221 kts | 137° |
| 2026-05-01 14:04 | -22.96013 | -43.12658 | 2529 ft | 226 kts | 137° |
| 2026-05-01 14:04 | -22.97200 | -43.11514 | 3511 ft | 230 kts | 137° |
| 2026-05-01 14:04 | -22.98543 | -43.10452 | 4140 ft | 254 kts | 153° |
| 2026-05-01 14:04 | -22.99700 | -43.10089 | 4579 ft | 268 kts | 173° |
| 2026-05-01 14:05 | -23.02152 | -43.10740 | 5838 ft | 282 kts | 214° |
| 2026-05-01 14:05 | -23.03409 | -43.12368 | 6801 ft | 287 kts | 246° |
| 2026-05-01 14:05 | -23.04101 | -43.14411 | 7884 ft | 290 kts | 251° |
| 2026-05-01 14:05 | -23.04762 | -43.16507 | 8997 ft | 296 kts | 252° |
| 2026-05-01 14:06 | -23.05423 | -43.18608 | 10115 ft | 299 kts | 252° |
| 2026-05-01 14:06 | -23.06116 | -43.20800 | 10669 ft | 319 kts | 251° |
| 2026-05-01 14:06 | -23.06861 | -43.23132 | 11310 ft | 331 kts | 251° |
| 2026-05-01 14:06 | -23.07629 | -43.25515 | 12075 ft | 337 kts | 251° |
| 2026-05-01 14:07 | -23.08409 | -43.27921 | 12884 ft | 339 kts | 251° |
| 2026-05-01 14:07 | -23.09196 | -43.30350 | 13688 ft | 342 kts | 250° |
| 2026-05-01 14:07 | -23.09990 | -43.32798 | 14429 ft | 346 kts | 251° |
| 2026-05-01 14:08 | -23.11587 | -43.37752 | 15866 ft | 349 kts | 251° |
| 2026-05-01 14:08 | -23.12390 | -43.40258 | 16633 ft | 351 kts | 251° |
| 2026-05-01 14:08 | -23.13194 | -43.42766 | 17379 ft | 353 kts | 251° |
| 2026-05-01 14:08 | -23.14006 | -43.45294 | 18064 ft | 355 kts | 251° |
| 2026-05-01 14:09 | -23.14829 | -43.47834 | 18691 ft | 358 kts | 251° |
| 2026-05-01 14:09 | -23.15402 | -43.49524 | 19084 ft | 360 kts | 250° |
| 2026-05-01 14:09 | -23.16609 | -43.52935 | 19895 ft | 364 kts | 249° |
| 2026-05-01 14:09 | -23.17526 | -43.55472 | 20489 ft | 367 kts | 249° |
| 2026-05-01 14:10 | -23.18465 | -43.58062 | 21100 ft | 370 kts | 250° |
| 2026-05-01 14:10 | -23.19405 | -43.60669 | 21699 ft | 372 kts | 250° |
| 2026-05-01 14:10 | -23.20347 | -43.63305 | 22285 ft | 375 kts | 250° |
| 2026-05-01 14:10 | -23.21292 | -43.65964 | 22865 ft | 378 kts | 250° |
| 2026-05-01 14:11 | -23.22238 | -43.68641 | 23438 ft | 381 kts | 250° |
| 2026-05-01 14:11 | -23.24149 | -43.74065 | 24472 ft | 386 kts | 250° |
| 2026-05-01 14:11 | -23.25113 | -43.76808 | 24977 ft | 388 kts | 250° |
| 2026-05-01 14:12 | -23.26081 | -43.79558 | 25478 ft | 390 kts | 250° |
| 2026-05-01 14:12 | -23.27054 | -43.82324 | 25965 ft | 391 kts | 250° |
| 2026-05-01 14:12 | -23.28028 | -43.85096 | 26449 ft | 393 kts | 250° |
| 2026-05-01 14:12 | -23.28995 | -43.87845 | 26914 ft | 395 kts | 250° |
| 2026-05-01 14:13 | -23.29978 | -43.90644 | 27388 ft | 397 kts | 250° |
| 2026-05-01 14:13 | -23.30643 | -43.92542 | 27706 ft | 398 kts | 250° |
| 2026-05-01 14:13 | -23.31953 | -43.96281 | 28323 ft | 401 kts | 250° |
| 2026-05-01 14:13 | -23.32947 | -43.99115 | 28789 ft | 402 kts | 250° |
| 2026-05-01 14:14 | -23.33949 | -44.01970 | 29259 ft | 404 kts | 250° |
| 2026-05-01 14:14 | -23.34957 | -44.04839 | 29712 ft | 407 kts | 250° |
| 2026-05-01 14:14 | -23.35965 | -44.07719 | 30095 ft | 409 kts | 250° |
| 2026-05-01 14:14 | -23.36975 | -44.10604 | 30177 ft | 403 kts | 250° |
| 2026-05-01 14:15 | -23.37951 | -44.13390 | 30193 ft | 385 kts | 250° |
| 2026-05-01 14:15 | -23.38574 | -44.15172 | 30190 ft | 374 kts | 250° |
| 2026-05-01 14:15 | -23.39787 | -44.18643 | 30187 ft | 363 kts | 250° |
| 2026-05-01 14:15 | -23.40678 | -44.21204 | 30192 ft | 360 kts | 250° |
| 2026-05-01 14:16 | -23.42154 | -44.25440 | 30183 ft | 360 kts | 251° |
| 2026-05-01 14:16 | -23.43927 | -44.30540 | 30190 ft | 360 kts | 251° |
| 2026-05-01 14:17 | -23.45548 | -44.35205 | 30189 ft | 367 kts | 251° |
| 2026-05-01 14:17 | -23.47374 | -44.40458 | 30189 ft | 372 kts | 250° |
| 2026-05-01 14:18 | -23.49203 | -44.45707 | 30176 ft | 373 kts | 251° |
| 2026-05-01 14:18 | -23.51033 | -44.51000 | 30185 ft | 373 kts | 251° |
| 2026-05-01 14:19 | -23.52866 | -44.56294 | 30179 ft | 373 kts | 251° |
| 2026-05-01 14:19 | -23.54696 | -44.61588 | 30177 ft | 373 kts | 251° |
| 2026-05-01 14:20 | -23.57443 | -44.69543 | 30182 ft | 373 kts | 251° |
| 2026-05-01 14:21 | -23.59271 | -44.74839 | 30179 ft | 373 kts | 251° |
| 2026-05-01 14:21 | -23.61105 | -44.80141 | 30183 ft | 373 kts | 251° |
| 2026-05-01 14:22 | -23.63818 | -44.88049 | 30178 ft | 373 kts | 251° |
| 2026-05-01 14:22 | -23.65636 | -44.93353 | 30180 ft | 373 kts | 251° |
| 2026-05-01 14:23 | -23.67458 | -44.98657 | 30177 ft | 373 kts | 251° |
| 2026-05-01 14:23 | -23.69269 | -45.03955 | 30200 ft | 372 kts | 251° |
| 2026-05-01 14:24 | -23.71078 | -45.09246 | 30066 ft | 373 kts | 251° |
| 2026-05-01 14:24 | -23.71982 | -45.11892 | 29796 ft | 373 kts | 251° |
| 2026-05-01 14:24 | -23.72891 | -45.14546 | 29537 ft | 373 kts | 251° |
| 2026-05-01 14:25 | -23.73800 | -45.17206 | 29275 ft | 374 kts | 251° |
| 2026-05-01 14:25 | -23.74709 | -45.19874 | 29016 ft | 375 kts | 251° |
| 2026-05-01 14:25 | -23.75615 | -45.22551 | 28759 ft | 376 kts | 252° |
| 2026-05-01 14:25 | -23.76303 | -45.25304 | 28495 ft | 377 kts | 258° |
| 2026-05-01 14:26 | -23.76914 | -45.28089 | 28246 ft | 379 kts | 257° |
| 2026-05-01 14:26 | -23.78147 | -45.33671 | 27525 ft | 376 kts | 257° |
| 2026-05-01 14:26 | -23.78758 | -45.36437 | 27019 ft | 375 kts | 257° |
| 2026-05-01 14:27 | -23.79367 | -45.39206 | 26509 ft | 375 kts | 258° |
| 2026-05-01 14:27 | -23.79787 | -45.42001 | 26008 ft | 374 kts | 267° |
| 2026-05-01 14:27 | -23.79923 | -45.44877 | 25649 ft | 384 kts | 267° |
| 2026-05-01 14:28 | -23.80220 | -45.50755 | 24861 ft | 391 kts | 267° |
| 2026-05-01 14:28 | -23.80375 | -45.53697 | 24464 ft | 393 kts | 267° |
| 2026-05-01 14:28 | -23.80534 | -45.56681 | 24059 ft | 395 kts | 267° |
| 2026-05-01 14:28 | -23.80693 | -45.59686 | 23633 ft | 397 kts | 267° |
| 2026-05-01 14:29 | -23.80851 | -45.62704 | 23195 ft | 398 kts | 267° |
| 2026-05-01 14:29 | -23.81009 | -45.65712 | 22790 ft | 396 kts | 267° |
| 2026-05-01 14:30 | -23.81462 | -45.74662 | 21580 ft | 390 kts | 268° |
| 2026-05-01 14:30 | -23.81607 | -45.77609 | 21182 ft | 387 kts | 268° |
| 2026-05-01 14:30 | -23.81750 | -45.80538 | 20784 ft | 385 kts | 268° |
| 2026-05-01 14:31 | -23.82030 | -45.86314 | 20007 ft | 381 kts | 268° |
| 2026-05-01 14:31 | -23.82172 | -45.89202 | 19614 ft | 379 kts | 267° |
| 2026-05-01 14:31 | -23.82315 | -45.92061 | 19227 ft | 377 kts | 267° |
| 2026-05-01 14:31 | -23.82457 | -45.94918 | 18835 ft | 375 kts | 267° |
| 2026-05-01 14:32 | -23.82600 | -45.97754 | 18447 ft | 373 kts | 267° |
| 2026-05-01 14:32 | -23.82742 | -46.00575 | 18032 ft | 371 kts | 267° |
| 2026-05-01 14:32 | -23.82877 | -46.03385 | 17652 ft | 370 kts | 267° |
| 2026-05-01 14:32 | -23.83010 | -46.06177 | 17277 ft | 368 kts | 267° |
| 2026-05-01 14:33 | -23.83144 | -46.08965 | 16903 ft | 367 kts | 267° |
| 2026-05-01 14:33 | -23.83278 | -46.11745 | 16528 ft | 366 kts | 267° |
| 2026-05-01 14:33 | -23.83411 | -46.14516 | 16152 ft | 364 kts | 267° |
| 2026-05-01 14:33 | -23.83544 | -46.17275 | 15779 ft | 363 kts | 267° |
| 2026-05-01 14:34 | -23.83673 | -46.20014 | 15407 ft | 361 kts | 267° |
| 2026-05-01 14:34 | -23.83802 | -46.22749 | 15037 ft | 359 kts | 267° |
| 2026-05-01 14:34 | -23.83811 | -46.25461 | 14742 ft | 357 kts | 277° |
| 2026-05-01 14:34 | -23.83247 | -46.28098 | 14520 ft | 357 kts | 285° |
| 2026-05-01 14:35 | -23.82589 | -46.30706 | 14292 ft | 355 kts | 285° |
| 2026-05-01 14:35 | -23.81931 | -46.33301 | 14073 ft | 354 kts | 285° |
| 2026-05-01 14:35 | -23.81272 | -46.35894 | 13836 ft | 354 kts | 285° |
| 2026-05-01 14:35 | -23.80616 | -46.38476 | 13591 ft | 352 kts | 285° |
| 2026-05-01 14:36 | -23.79962 | -46.41054 | 13348 ft | 352 kts | 285° |
| 2026-05-01 14:36 | -23.79307 | -46.43627 | 13101 ft | 351 kts | 285° |
| 2026-05-01 14:36 | -23.78652 | -46.46190 | 12816 ft | 348 kts | 285° |
| 2026-05-01 14:36 | -23.78004 | -46.48713 | 12329 ft | 344 kts | 285° |
| 2026-05-01 14:37 | -23.77360 | -46.51222 | 11825 ft | 342 kts | 285° |
| 2026-05-01 14:37 | -23.76723 | -46.53712 | 11305 ft | 340 kts | 285° |
| 2026-05-01 14:37 | -23.76092 | -46.56193 | 10829 ft | 337 kts | 285° |
| 2026-05-01 14:37 | -23.75478 | -46.58607 | 10706 ft | 323 kts | 285° |
| 2026-05-01 14:38 | -23.74891 | -46.60913 | 10595 ft | 309 kts | 285° |
| 2026-05-01 14:38 | -23.74324 | -46.63129 | 10462 ft | 297 kts | 285° |
| 2026-05-01 14:38 | -23.73772 | -46.65284 | 10371 ft | 293 kts | 285° |
| 2026-05-01 14:38 | -23.73226 | -46.67412 | 10249 ft | 293 kts | 285° |
| 2026-05-01 14:39 | -23.72673 | -46.69530 | 9800 ft | 293 kts | 288° |
| 2026-05-01 14:39 | -23.71780 | -46.71515 | 9374 ft | 290 kts | 306° |
| 2026-05-01 14:39 | -23.70428 | -46.73110 | 9048 ft | 285 kts | 321° |
| 2026-05-01 14:39 | -23.68791 | -46.74294 | 8746 ft | 281 kts | 328° |
| 2026-05-01 14:40 | -23.67139 | -46.75427 | 8373 ft | 281 kts | 328° |
| 2026-05-01 14:40 | -23.65504 | -46.76559 | 7916 ft | 272 kts | 328° |
| 2026-05-01 14:40 | -23.63947 | -46.77638 | 7623 ft | 258 kts | 328° |
| 2026-05-01 14:40 | -23.62455 | -46.78674 | 7337 ft | 252 kts | 328° |
| 2026-05-01 14:41 | -23.60991 | -46.79689 | 7048 ft | 246 kts | 328° |
| 2026-05-01 14:41 | -23.59558 | -46.80679 | 6780 ft | 241 kts | 329° |
| 2026-05-01 14:41 | -23.58014 | -46.81277 | 6510 ft | 235 kts | 354° |
| 2026-05-01 14:41 | -23.56426 | -46.81081 | 6372 ft | 226 kts | 18° |
| 2026-05-01 14:42 | -23.55113 | -46.80202 | 6190 ft | 222 kts | 42° |
| 2026-05-01 14:42 | -23.54205 | -46.78852 | 5943 ft | 218 kts | 55° |
| 2026-05-01 14:42 | -23.53409 | -46.77480 | 5694 ft | 210 kts | 55° |
| 2026-05-01 14:42 | -23.52638 | -46.76162 | 5415 ft | 203 kts | 54° |
| 2026-05-01 14:43 | -23.52059 | -46.74780 | 5038 ft | 203 kts | 78° |
| 2026-05-01 14:43 | -23.52255 | -46.73288 | 4776 ft | 205 kts | 112° |
| 2026-05-01 14:43 | -23.53212 | -46.72159 | 4548 ft | 206 kts | 144° |
| 2026-05-01 14:43 | -23.54423 | -46.71341 | 4318 ft | 203 kts | 145° |
| 2026-05-01 14:44 | -23.55603 | -46.70534 | 4098 ft | 198 kts | 145° |
| 2026-05-01 14:44 | -23.57773 | -46.69041 | 3683 ft | 163 kts | 146° |
| 2026-05-01 14:44 | -23.58668 | -46.68421 | 3502 ft | 146 kts | 146° |
| 2026-05-01 14:45 | -23.59500 | -46.67846 | 3292 ft | 138 kts | 144° |
| 2026-05-01 14:45 | -23.61087 | -46.66745 | 2869 ft | 133 kts | 145° |
| 2026-05-01 14:45 | -23.61870 | -46.66203 | 2675 ft | 133 kts | 144° |
| 2026-05-01 14:46 | -23.62603 | -46.65684 | 2605 ft | 104 kts | 148° |
| 2026-05-01 14:46 | -23.62930 | -46.65531 | 2605 ft | 9 kts | 260° |
| 2026-05-01 14:46 | -23.62895 | -46.65597 | 2603 ft | 11 kts | 327° |
| 2026-05-01 14:47 | -23.62825 | -46.65646 | 2603 ft | 12 kts | 327° |
| 2026-05-01 14:47 | -23.62750 | -46.65697 | 2602 ft | 13 kts | 328° |
| 2026-05-01 14:47 | -23.62681 | -46.65744 | 2602 ft | 11 kts | 327° |
| 2026-05-01 14:48 | -23.62534 | -46.65847 | 2602 ft | 14 kts | 326° |
| 2026-05-01 14:48 | -23.62473 | -46.65911 | 2601 ft | 8 kts | 262° |
| 2026-05-01 14:48 | -23.62511 | -46.65966 | 2600 ft | 2 kts | 237° |
| 2026-05-01 14:49 | -23.62512 | -46.65968 | 2600 ft | 0 kts | 237° |